Time;durP1;ratioP1;P1;durP2;ratioP2;P2;SDS_P1;SDS_P2;PMS_P1;PMS_P2;Temp;Humidity;BMP_temperature;BMP_pressure;BME280_temperature;BME280_humidity;BME280_pressure;Samples;Min_cycle;Max_cycle;Signal;HPM_P1;HPM_P2
2021/11/25 00:01:33;;;;;;;1.10;1.08;;;;;;;1.91;91.67;99308.97;6373528;22;20014;-79
2021/11/25 00:03:59;;;;;;;0.60;0.60;;;;;;;1.88;92.15;99311.63;6401318;22;20096;-78
2021/11/25 00:06:25;;;;;;;0.60;0.60;;;;;;;1.86;92.67;99315.13;6401841;22;20101;-78
2021/11/25 00:08:51;;;;;;;0.50;0.50;;;;;;;1.85;92.53;99309.13;6372654;22;20048;-77
2021/11/25 00:11:18;;;;;;;0.45;0.45;;;;;;;1.84;92.37;99327.19;6402570;22;20017;-77
2021/11/25 00:13:44;;;;;;;0.40;0.40;;;;;;;1.84;92.45;99315.16;6403705;22;20025;-77
2021/11/25 00:16:10;;;;;;;0.30;0.30;;;;;;;1.89;91.90;99333.91;6378339;22;20089;-79
2021/11/25 00:18:36;;;;;;;0.60;0.60;;;;;;;1.95;91.39;99315.72;6402995;22;20013;-77
2021/11/25 00:21:02;;;;;;;0.40;0.40;;;;;;;1.96;90.45;99317.38;6404691;22;20018;-78
2021/11/25 00:23:28;;;;;;;0.50;0.50;;;;;;;2.02;90.34;99332.66;6401081;22;20035;-77
2021/11/25 00:25:54;;;;;;;0.40;0.40;;;;;;;2.03;90.15;99333.47;6326241;22;20025;-77
2021/11/25 00:28:20;;;;;;;0.40;0.40;;;;;;;1.99;90.93;99342.19;6404316;22;20013;-76
2021/11/25 00:30:46;;;;;;;0.60;0.60;;;;;;;1.94;91.46;99344.91;6401205;22;20089;-76
2021/11/25 00:33:13;;;;;;;0.50;0.50;;;;;;;1.88;92.10;99349.38;6368752;22;20025;-77
2021/11/25 00:35:39;;;;;;;0.50;0.50;;;;;;;1.79;92.59;99342.75;6398728;22;20062;-77
2021/11/25 00:38:05;;;;;;;0.68;0.68;;;;;;;1.87;92.17;99353.66;6377186;22;20045;-78
2021/11/25 00:40:32;;;;;;;0.60;0.60;;;;;;;1.83;92.78;99351.25;6408883;22;20014;-75
2021/11/25 00:42:58;;;;;;;0.50;0.50;;;;;;;1.86;92.32;99356.28;6412451;22;20013;-76
2021/11/25 00:45:24;;;;;;;0.80;0.80;;;;;;;1.88;91.62;99345.06;6386883;22;20014;-77
2021/11/25 00:47:50;;;;;;;0.40;0.40;;;;;;;1.91;91.65;99344.97;6402289;22;20078;-77
2021/11/25 00:50:17;;;;;;;0.40;0.40;;;;;;;1.92;91.73;99359.53;6345701;22;20014;-75
2021/11/25 00:52:43;;;;;;;0.63;0.63;;;;;;;2.01;90.76;99361.84;6399131;22;20661;-77
2021/11/25 00:55:09;;;;;;;0.60;0.60;;;;;;;2.13;89.21;99359.81;6320903;22;20035;-75
2021/11/25 00:57:35;;;;;;;1.27;1.27;;;;;;;2.12;89.17;99353.84;6400668;22;20100;-77
2021/11/25 01:00:04;;;;;;;0.43;0.43;;;;;;;2.09;88.56;99367.59;6371906;22;20041;-77
2021/11/25 01:02:30;;;;;;;0.40;0.40;;;;;;;2.14;87.58;99356.34;6400908;22;20521;-77
2021/11/25 01:04:56;;;;;;;0.50;0.50;;;;;;;2.15;87.78;99369.19;6401584;22;20022;-77
2021/11/25 01:07:22;;;;;;;0.30;0.30;;;;;;;2.16;87.68;99375.19;6376597;22;20024;-76
2021/11/25 01:09:48;;;;;;;0.50;0.50;;;;;;;2.17;87.72;99385.41;6397836;22;20018;-76
2021/11/25 01:12:15;;;;;;;0.70;0.70;;;;;;;2.24;86.42;99363.75;6398069;22;20584;-77
2021/11/25 01:14:41;;;;;;;0.68;0.68;;;;;;;2.23;87.21;99381.81;6372551;22;20334;-76
2021/11/25 01:17:07;;;;;;;0.60;0.60;;;;;;;2.16;87.65;99381.16;6404715;22;20017;-76
2021/11/25 01:19:33;;;;;;;0.45;0.45;;;;;;;2.12;87.88;99389.88;6402682;22;20639;-75
2021/11/25 01:21:59;;;;;;;0.50;0.50;;;;;;;2.11;87.72;99395.91;6349181;22;20038;-75
2021/11/25 01:24:25;;;;;;;0.60;0.60;;;;;;;2.12;86.76;99391.59;6376196;22;20449;-76
2021/11/25 01:26:52;;;;;;;0.50;0.50;;;;;;;2.14;86.66;99402.69;6351319;22;20018;-76
2021/11/25 01:29:18;;;;;;;0.40;0.40;;;;;;;2.16;85.76;99390.63;6403702;22;20097;-76
2021/11/25 01:31:44;;;;;;;0.50;0.50;;;;;;;2.23;85.17;99399.84;6405943;22;20026;-76
2021/11/25 01:34:10;;;;;;;0.60;0.60;;;;;;;2.21;85.50;99409.34;6396945;22;20101;-76
2021/11/25 01:36:36;;;;;;;0.50;0.50;;;;;;;2.20;85.42;99411.06;6370320;22;20014;-77
2021/11/25 01:39:02;;;;;;;0.57;0.57;;;;;;;2.21;85.15;99417.06;6370091;22;20037;-76
2021/11/25 01:41:29;;;;;;;0.40;0.40;;;;;;;2.21;85.19;99435.94;6371503;22;20063;-77
2021/11/25 01:43:55;;;;;;;0.70;0.70;;;;;;;2.16;85.73;99432.63;6348376;22;20032;-75
2021/11/25 01:46:21;;;;;;;0.50;0.50;;;;;;;2.22;84.85;99431.66;6406862;22;20017;-76
2021/11/25 01:48:47;;;;;;;0.75;0.75;;;;;;;2.24;84.55;99432.44;6401344;22;20051;-75
2021/11/25 01:51:17;;;;;;;0.50;0.50;;;;;;;2.26;84.26;99438.41;6371818;22;20017;-76
2021/11/25 01:53:43;;;;;;;0.60;0.60;;;;;;;2.23;84.63;99433.31;6370765;22;20068;-75
2021/11/25 01:56:09;;;;;;;0.40;0.40;;;;;;;2.16;85.12;99442.94;6397661;22;20018;-77
2021/11/25 01:58:36;;;;;;;0.40;0.40;;;;;;;2.18;85.88;99451.47;6406006;22;20035;-77
2021/11/25 02:01:06;;;;;;;0.40;0.40;;;;;;;2.21;85.81;99450.53;6406063;22;20314;-78
2021/11/25 02:03:32;;;;;;;0.50;0.50;;;;;;;2.14;85.91;99449.88;6409755;22;20014;-76
2021/11/25 02:05:58;;;;;;;0.55;0.55;;;;;;;2.10;85.90;99454.25;6407969;22;20045;-77
2021/11/25 02:08:25;;;;;;;0.50;0.50;;;;;;;2.15;85.62;99445.56;6403620;22;20025;-76
2021/11/25 02:10:51;;;;;;;0.77;0.77;;;;;;;2.16;85.48;99445.50;6407613;22;20069;-76
2021/11/25 02:13:18;;;;;;;1.08;0.75;;;;;;;2.19;84.88;99455.75;6408009;22;20018;-77
2021/11/25 02:15:44;;;;;;;0.85;0.85;;;;;;;2.16;85.27;99452.41;6407150;22;20093;-75
2021/11/25 02:18:12;;;;;;;0.40;0.40;;;;;;;2.21;83.85;99451.41;6407333;22;20018;-75
2021/11/25 02:20:39;;;;;;;0.50;0.50;;;;;;;2.24;83.52;99460.75;6378506;22;20010;-75
2021/11/25 02:23:06;;;;;;;0.40;0.40;;;;;;;2.21;83.66;99455.69;6402449;22;20017;-76
2021/11/25 02:25:33;;;;;;;0.60;0.60;;;;;;;2.18;83.95;99448.06;6349388;22;20404;-76
2021/11/25 02:27:59;;;;;;;0.40;0.40;;;;;;;2.17;84.13;99456.66;6405451;22;20075;-75
2021/11/25 02:30:25;;;;;;;0.50;0.50;;;;;;;2.11;85.30;99460.25;6377603;22;20029;-76
2021/11/25 02:32:51;;;;;;;0.50;0.50;;;;;;;2.07;85.98;99469.78;6376310;22;20052;-76
2021/11/25 02:35:26;;;;;;;0.50;0.50;;;;;;;1.97;86.44;99462.34;6352779;22;20017;-76
2021/11/25 02:37:53;;;;;;;0.50;0.50;;;;;;;2.02;86.99;99466.50;6380349;22;20021;-77
2021/11/25 02:40:32;;;;;;;0.60;0.60;;;;;;;1.99;87.47;99470.88;6381054;22;20531;-77
2021/11/25 02:43:00;;;;;;;0.50;0.50;;;;;;;1.99;87.46;99476.03;6385803;22;20037;-77
2021/11/25 02:45:26;;;;;;;0.50;0.50;;;;;;;1.91;88.26;99476.22;6406150;22;20041;-76
2021/11/25 02:47:53;;;;;;;0.40;0.40;;;;;;;1.91;88.72;99489.09;6373777;22;20018;-77
2021/11/25 02:50:20;;;;;;;0.57;0.57;;;;;;;1.87;89.36;99499.50;6401241;22;20037;-76
2021/11/25 02:52:46;;;;;;;0.50;0.50;;;;;;;1.83;89.60;99491.00;6375282;22;20096;-76
2021/11/25 02:55:12;;;;;;;0.50;0.50;;;;;;;1.88;88.74;99494.31;6375641;22;20025;-75
2021/11/25 02:57:39;;;;;;;0.60;0.60;;;;;;;1.91;88.25;99499.38;6373829;22;20021;-75
2021/11/25 03:00:21;;;;;;;0.50;0.50;;;;;;;1.91;88.06;99496.81;6375267;22;20017;-77
2021/11/25 03:03:08;;;;;;;1.05;0.95;;;;;;;1.93;87.14;99489.06;6400612;22;20020;-76
2021/11/25 03:05:36;;;;;;;0.50;0.50;;;;;;;1.98;86.27;99500.06;6400794;22;20120;-76
2021/11/25 03:08:03;;;;;;;0.88;0.88;;;;;;;2.00;85.44;99499.16;6406959;22;20024;-76
2021/11/25 03:10:36;;;;;;;0.60;0.60;;;;;;;2.02;85.25;99499.97;6377369;22;20017;-77
2021/11/25 03:13:03;;;;;;;0.50;0.50;;;;;;;2.01;85.21;99494.84;6376170;22;20026;-76
2021/11/25 03:15:31;;;;;;;0.50;0.50;;;;;;;2.06;85.04;99496.41;6352243;22;20101;-75
2021/11/25 03:17:57;;;;;;;0.50;0.50;;;;;;;2.03;84.90;99493.91;6301442;22;20025;-75
2021/11/25 03:20:23;;;;;;;0.50;0.50;;;;;;;2.09;84.54;99488.59;6379903;22;20047;-76
2021/11/25 03:22:49;;;;;;;0.77;0.77;;;;;;;2.13;84.46;99496.28;6353861;22;20018;-76
2021/11/25 03:25:15;;;;;;;0.50;0.50;;;;;;;2.10;84.77;99494.59;6406359;22;20025;-75
2021/11/25 03:27:41;;;;;;;0.50;0.50;;;;;;;2.10;84.57;99494.59;6322002;22;20051;-75
2021/11/25 03:30:08;;;;;;;0.68;0.68;;;;;;;2.13;84.48;99504.00;6403417;22;20013;-75
2021/11/25 03:32:34;;;;;;;0.50;0.50;;;;;;;2.24;82.41;99496.81;6342406;22;20026;-75
2021/11/25 03:35:01;;;;;;;0.50;0.50;;;;;;;2.19;83.74;99490.94;6396222;22;20014;-74
2021/11/25 03:37:27;;;;;;;0.70;0.70;;;;;;;2.06;84.12;99504.13;6397121;22;20018;-75
2021/11/25 03:39:53;;;;;;;0.50;0.50;;;;;;;2.00;83.83;99506.88;6371704;22;20018;-76
2021/11/25 03:42:19;;;;;;;0.88;0.88;;;;;;;2.04;83.10;99510.22;6398909;22;20017;-76
2021/11/25 03:44:46;;;;;;;0.68;0.68;;;;;;;2.13;81.67;99511.72;6371299;22;20063;-74
2021/11/25 03:47:12;;;;;;;0.50;0.50;;;;;;;2.11;81.82;99522.03;6395847;22;20097;-74
2021/11/25 03:49:39;;;;;;;0.57;0.57;;;;;;;2.10;81.79;99513.47;6367817;22;20017;-73
2021/11/25 03:52:05;;;;;;;0.60;0.60;;;;;;;2.09;82.43;99514.34;6368188;22;20060;-74
2021/11/25 03:54:32;;;;;;;0.60;0.60;;;;;;;2.08;82.34;99507.53;6396767;22;20021;-74
2021/11/25 03:56:58;;;;;;;0.60;0.60;;;;;;;2.10;82.46;99525.50;6370015;22;20474;-75
2021/11/25 03:59:26;;;;;;;0.70;0.70;;;;;;;2.03;83.60;99522.22;6370132;22;20049;-76
2021/11/25 04:01:52;;;;;;;0.63;0.63;;;;;;;1.96;84.54;99536.13;6369684;22;20024;-73
2021/11/25 04:04:18;;;;;;;0.40;0.40;;;;;;;1.96;85.04;99538.72;6396074;22;20021;-74
2021/11/25 04:06:45;;;;;;;0.85;0.85;;;;;;;1.92;86.49;99546.56;6396931;22;20034;-73
2021/11/25 04:09:12;;;;;;;0.45;0.45;;;;;;;1.77;87.65;99557.22;6368997;22;20020;-75
2021/11/25 04:11:38;;;;;;;0.60;0.60;;;;;;;1.69;88.68;99556.56;6397103;22;20017;-74
2021/11/25 04:14:04;;;;;;;0.60;0.60;;;;;;;1.68;89.04;99560.84;6397428;22;20029;-74
2021/11/25 04:16:31;;;;;;;0.90;0.90;;;;;;;1.63;89.28;99560.13;6368411;22;20066;-73
2021/11/25 04:18:57;;;;;;;0.85;0.85;;;;;;;1.66;89.17;99560.06;6369381;22;20086;-74
2021/11/25 04:21:24;;;;;;;0.82;0.82;;;;;;;1.70;88.46;99571.97;6396942;22;20018;-72
2021/11/25 04:23:51;;;;;;;0.55;0.55;;;;;;;1.71;88.01;99568.50;6342381;22;20034;-73
2021/11/25 04:26:17;;;;;;;0.60;0.60;;;;;;;1.82;86.24;99566.53;6395894;22;20109;-72
2021/11/25 04:28:43;;;;;;;0.60;0.60;;;;;;;1.83;85.60;99565.63;6393347;22;20014;-73
2021/11/25 04:36:40;;;;;;;0.55;0.55;;;;;;;1.90;83.28;99561.16;6393810;22;20020;-73
2021/11/25 04:39:07;;;;;;;0.60;0.60;;;;;;;1.97;83.19;99573.88;6393790;22;20018;-72
2021/11/25 04:41:33;;;;;;;0.50;0.50;;;;;;;2.03;82.74;99578.00;6393337;22;20016;-73
2021/11/25 04:43:59;;;;;;;0.93;0.93;;;;;;;1.97;83.87;99584.16;6394661;22;20021;-71
2021/11/25 04:46:25;;;;;;;0.50;0.50;;;;;;;1.96;84.73;99590.19;6396383;22;20155;-73
2021/11/25 04:48:51;;;;;;;0.50;0.50;;;;;;;1.90;85.73;99592.06;6368891;22;20070;-73
2021/11/25 04:51:17;;;;;;;0.70;0.70;;;;;;;1.85;87.00;99596.47;6397396;22;20395;-74
2021/11/25 04:53:43;;;;;;;0.60;0.60;;;;;;;1.78;87.57;99612.94;6396476;22;20021;-76
2021/11/25 04:56:09;;;;;;;0.65;0.65;;;;;;;1.73;87.65;99607.91;6397319;22;20362;-74
2021/11/25 04:58:36;;;;;;;0.70;0.70;;;;;;;1.76;87.73;99613.00;6368405;22;20017;-75
2021/11/25 05:01:02;;;;;;;0.60;0.60;;;;;;;1.82;87.29;99615.41;6397125;22;20013;-73
2021/11/25 05:03:28;;;;;;;1.23;1.10;;;;;;;1.79;87.00;99615.50;6396831;22;20014;-74
2021/11/25 05:05:54;;;;;;;0.90;0.90;;;;;;;1.83;87.09;99613.69;6396558;22;20079;-73
2021/11/25 05:08:21;;;;;;;0.50;0.50;;;;;;;1.85;86.46;99615.34;6396995;22;20081;-75
2021/11/25 05:10:48;;;;;;;0.60;0.60;;;;;;;1.85;86.50;99617.91;6397118;22;20014;-75
2021/11/25 05:13:14;;;;;;;0.80;0.80;;;;;;;1.86;86.37;99629.91;6397227;22;20536;-74
2021/11/25 05:15:40;;;;;;;0.55;0.55;;;;;;;1.85;86.58;99623.06;6396815;22;20086;-74
2021/11/25 05:18:06;;;;;;;0.98;0.98;;;;;;;1.79;86.95;99622.38;6397019;22;20381;-75
2021/11/25 05:20:32;;;;;;;0.80;0.80;;;;;;;1.78;87.12;99621.50;6368754;22;20096;-75
2021/11/25 05:22:58;;;;;;;0.50;0.50;;;;;;;1.75;87.50;99626.72;6396799;22;20025;-73
2021/11/25 05:25:24;;;;;;;0.70;0.70;;;;;;;1.72;87.55;99626.81;6367980;22;20018;-75
2021/11/25 05:27:51;;;;;;;0.50;0.50;;;;;;;1.72;87.87;99631.94;6343005;22;20022;-74
2021/11/25 05:30:18;;;;;;;0.80;0.80;;;;;;;1.72;87.91;99641.38;6386294;22;20453;-77
2021/11/25 05:32:44;;;;;;;0.55;0.55;;;;;;;1.70;88.26;99644.00;6395683;22;20022;-78
2021/11/25 05:35:11;;;;;;;0.90;0.90;;;;;;;1.75;87.79;99642.16;6368629;22;20515;-76
2021/11/25 05:37:37;;;;;;;0.60;0.60;;;;;;;1.79;87.58;99632.66;6367480;22;20409;-76
2021/11/25 05:40:04;;;;;;;0.50;0.50;;;;;;;1.84;87.27;99641.09;6396251;22;20013;-75
2021/11/25 05:42:31;;;;;;;0.82;0.82;;;;;;;1.87;86.92;99644.44;6367251;22;20045;-76
2021/11/25 05:44:58;;;;;;;0.60;0.60;;;;;;;1.85;87.11;99653.94;6367195;22;20022;-75
2021/11/25 05:47:24;;;;;;;0.57;0.57;;;;;;;1.86;87.10;99654.78;6396171;22;20399;-78
2021/11/25 05:49:50;;;;;;;1.10;1.10;;;;;;;1.80;87.85;99666.06;6401019;22;20277;-76
2021/11/25 05:52:16;;;;;;;0.88;0.88;;;;;;;1.75;88.65;99657.59;6405686;22;20013;-77
2021/11/25 05:54:42;;;;;;;0.77;0.77;;;;;;;1.59;90.07;99645.97;6406143;22;20024;-76
2021/11/25 05:57:08;;;;;;;0.57;0.57;;;;;;;1.56;90.95;99658.91;6404420;22;20333;-75
2021/11/25 05:59:35;;;;;;;0.68;0.68;;;;;;;1.50;91.49;99646.16;6396606;22;20524;-77
2021/11/25 06:02:03;;;;;;;0.70;0.70;;;;;;;1.47;92.20;99661.66;6396095;22;20530;-78
2021/11/25 06:04:30;;;;;;;0.57;0.57;;;;;;;1.45;92.88;99663.41;6396303;22;20021;-80
2021/11/25 06:06:57;;;;;;;1.40;1.40;;;;;;;1.38;92.64;99654.13;6397172;22;20041;-78
2021/11/25 06:09:23;;;;;;;2.92;1.33;;;;;;;1.43;93.10;99647.19;6396059;22;20018;-79
2021/11/25 06:11:49;;;;;;;0.80;0.80;;;;;;;1.52;92.68;99664.97;6393871;22;20018;-74
2021/11/25 06:14:15;;;;;;;0.80;0.80;;;;;;;1.57;92.47;99658.03;6394590;22;20024;-73
2021/11/25 06:16:41;;;;;;;0.80;0.80;;;;;;;1.58;92.19;99660.56;6395100;22;20014;-74
2021/11/25 06:19:07;;;;;;;0.60;0.60;;;;;;;1.64;91.81;99674.19;6367265;22;20445;-74
2021/11/25 06:21:34;;;;;;;0.60;0.60;;;;;;;1.64;91.51;99659.56;6394853;22;20017;-75
2021/11/25 06:24:00;;;;;;;0.80;0.80;;;;;;;1.73;91.31;99661.09;6395611;22;20017;-74
2021/11/25 06:26:26;;;;;;;0.70;0.70;;;;;;;1.73;91.40;99658.53;6395225;22;20421;-75
2021/11/25 06:28:54;;;;;;;0.85;0.85;;;;;;;1.78;91.36;99665.25;6341007;22;20044;-75
2021/11/25 06:31:22;;;;;;;0.95;0.95;;;;;;;1.82;91.23;99666.88;6368181;22;20066;-76
2021/11/25 06:33:48;;;;;;;1.42;1.33;;;;;;;1.84;91.12;99667.69;6367024;22;20021;-75
2021/11/25 06:36:14;;;;;;;1.70;1.40;;;;;;;1.87;91.11;99665.03;6367676;22;20018;-75
2021/11/25 06:38:41;;;;;;;2.08;2.03;;;;;;;1.91;91.21;99661.53;6394107;22;20025;-75
2021/11/25 06:41:07;;;;;;;3.30;3.10;;;;;;;1.95;91.31;99665.72;6394540;22;20092;-75
2021/11/25 06:43:34;;;;;;;2.67;2.58;;;;;;;1.85;91.88;99645.38;6365416;22;20018;-75
2021/11/25 06:46:00;;;;;;;3.00;2.90;;;;;;;1.95;92.10;99660.56;6339919;22;20014;-75
2021/11/25 06:48:27;;;;;;;3.30;3.20;;;;;;;2.02;91.69;99661.28;6394145;22;20056;-75
2021/11/25 06:50:53;;;;;;;2.67;2.53;;;;;;;2.02;91.58;99666.44;6395146;22;20018;-74
2021/11/25 06:53:19;;;;;;;3.28;3.13;;;;;;;2.09;91.20;99668.81;6394893;22;20021;-74
2021/11/25 06:55:45;;;;;;;2.35;2.15;;;;;;;2.13;91.16;99673.91;6394611;22;20029;-74
2021/11/25 06:58:11;;;;;;;1.38;1.38;;;;;;;2.22;90.30;99676.25;6341021;22;20020;-75
2021/11/25 07:00:37;;;;;;;2.17;2.08;;;;;;;2.27;90.34;99674.41;6340140;22;20407;-75
2021/11/25 07:03:04;;;;;;;2.30;2.20;;;;;;;2.31;89.79;99668.31;6395188;22;20119;-75
2021/11/25 07:05:30;;;;;;;1.40;1.40;;;;;;;2.43;89.91;99668.00;6367226;22;20013;-74
2021/11/25 07:07:56;;;;;;;2.08;2.08;;;;;;;2.47;88.95;99674.75;6395091;22;20013;-75
2021/11/25 07:10:23;;;;;;;1.67;1.67;;;;;;;2.48;89.07;99681.63;6394974;22;20037;-74
2021/11/25 07:12:49;;;;;;;4.22;1.98;;;;;;;2.44;89.37;99674.84;6393712;22;20022;-74
2021/11/25 07:15:16;;;;;;;2.10;2.00;;;;;;;2.36;89.67;99676.75;6395084;22;20013;-73
2021/11/25 07:17:44;;;;;;;1.92;1.85;;;;;;;2.16;90.11;99684.94;6368429;22;20342;-77
2021/11/25 07:20:10;;;;;;;2.00;1.90;;;;;;;2.20;90.49;99686.56;6396476;22;20056;-78
2021/11/25 07:22:38;;;;;;;0.85;0.85;;;;;;;2.05;91.03;99698.09;6365779;22;20025;-76
2021/11/25 07:25:09;;;;;;;1.30;1.30;;;;;;;1.90;91.87;99672.69;6394451;22;20022;-78
2021/11/25 07:27:35;;;;;;;1.20;1.20;;;;;;;1.96;92.21;99695.72;6366627;22;20014;-74
2021/11/25 07:30:04;;;;;;;1.15;1.15;;;;;;;1.94;92.65;99700.06;6340582;22;20018;-75
2021/11/25 07:32:30;;;;;;;0.70;0.70;;;;;;;1.87;93.01;99700.22;6394505;22;20014;-76
2021/11/25 07:34:56;;;;;;;4.68;1.60;;;;;;;1.88;92.71;99707.91;6340906;22;20018;-76
2021/11/25 07:37:22;;;;;;;0.88;0.88;;;;;;;1.96;92.71;99716.28;6341224;22;20013;-76
2021/11/25 07:39:49;;;;;;;1.45;1.45;;;;;;;1.98;92.81;99706.84;6394187;22;20036;-76
2021/11/25 07:42:15;;;;;;;1.48;1.48;;;;;;;2.05;93.00;99713.53;6367557;22;20049;-74
2021/11/25 07:44:42;;;;;;;2.92;2.72;;;;;;;2.15;92.77;99723.63;6396937;22;20025;-74
2021/11/25 07:47:08;;;;;;;3.08;2.97;;;;;;;2.21;92.03;99718.31;6397463;22;20014;-75
2021/11/25 07:49:34;;;;;;;1.27;1.27;;;;;;;2.21;91.51;99718.31;6367177;22;20076;-77
2021/11/25 07:52:00;;;;;;;0.90;0.90;;;;;;;2.22;91.43;99730.31;6395703;22;20022;-76
2021/11/25 07:54:27;;;;;;;1.23;1.23;;;;;;;2.23;91.43;99725.13;6366814;22;20353;-77
2021/11/25 07:56:57;;;;;;;1.17;1.17;;;;;;;2.33;91.43;99721.47;6341286;22;20047;-75
2021/11/25 07:59:26;;;;;;;1.23;1.23;;;;;;;2.19;91.09;99686.63;6366841;22;20493;-75
2021/11/25 08:01:53;;;;;;;1.02;1.02;;;;;;;2.32;90.94;99719.78;6394968;22;20049;-74
2021/11/25 08:04:20;;;;;;;1.58;1.58;;;;;;;2.39;90.95;99718.72;6366696;22;20529;-75
2021/11/25 08:06:46;;;;;;;1.48;1.48;;;;;;;2.42;90.76;99723.81;6366480;22;20028;-75
2021/11/25 08:09:12;;;;;;;2.47;2.38;;;;;;;2.40;90.81;99725.59;6393740;22;20045;-75
2021/11/25 08:11:38;;;;;;;1.70;1.63;;;;;;;2.47;90.94;99726.28;6393962;22;20014;-75
2021/11/25 08:14:04;;;;;;;1.58;1.58;;;;;;;2.53;90.90;99723.56;6365650;22;20037;-76
2021/11/25 08:16:31;;;;;;;1.30;1.30;;;;;;;2.49;90.65;99715.06;6339197;22;20018;-75
2021/11/25 08:18:57;;;;;;;2.17;2.08;;;;;;;2.52;90.58;99719.31;6366488;22;20014;-76
2021/11/25 08:21:23;;;;;;;1.42;1.42;;;;;;;2.52;90.57;99716.72;6366640;22;20014;-75
2021/11/25 08:23:49;;;;;;;2.17;2.08;;;;;;;2.50;90.51;99713.31;6394229;22;20018;-74
2021/11/25 08:26:15;;;;;;;2.40;2.30;;;;;;;2.53;90.63;99720.97;6366404;22;20018;-74
2021/11/25 08:28:42;;;;;;;2.00;1.90;;;;;;;2.47;90.95;99715.97;6314415;22;20014;-75
2021/11/25 08:31:08;;;;;;;1.00;1.00;;;;;;;2.41;91.21;99716.97;6254094;22;20021;-75
2021/11/25 08:33:35;;;;;;;0.90;0.90;;;;;;;2.45;91.43;99717.75;6339424;22;20056;-74
2021/11/25 08:36:02;;;;;;;2.65;2.20;;;;;;;2.41;91.80;99729.00;6365735;22;20025;-80
2021/11/25 08:38:32;;;;;;;0.80;0.80;;;;;;;2.41;91.92;99721.28;6339266;22;20044;-75
2021/11/25 08:40:58;;;;;;;1.13;1.13;;;;;;;2.38;92.21;99711.91;6396348;22;20063;-77
2021/11/25 08:43:26;;;;;;;1.48;1.48;;;;;;;2.41;91.75;99721.28;6368775;22;20024;-77
2021/11/25 08:45:54;;;;;;;4.82;3.45;;;;;;;2.41;92.03;99716.13;6316778;22;20033;-81
2021/11/25 08:48:20;;;;;;;3.30;3.15;;;;;;;2.42;91.85;99715.25;6397966;22;20018;-80
2021/11/25 08:50:47;;;;;;;3.35;3.15;;;;;;;2.49;92.08;99714.19;6345317;22;20021;-80
2021/11/25 08:53:13;;;;;;;5.95;4.20;;;;;;;2.53;91.78;99718.41;6369642;22;20453;-80
2021/11/25 08:55:39;;;;;;;2.50;2.00;;;;;;;2.55;91.54;99720.03;6395346;22;20013;-80
2021/11/25 08:58:06;;;;;;;4.63;3.83;;;;;;;2.52;91.46;99712.41;6368767;22;20072;-78
2021/11/25 09:00:33;;;;;;;2.67;2.58;;;;;;;2.55;91.87;99703.78;6375428;22;20018;-79
2021/11/25 09:03:01;;;;;;;2.53;2.33;;;;;;;2.55;91.70;99708.91;6380947;22;20017;-79
2021/11/25 09:05:27;;;;;;;1.60;1.60;;;;;;;2.51;91.26;99709.88;6409532;22;20018;-79
2021/11/25 09:07:53;;;;;;;4.32;4.00;;;;;;;2.61;91.19;99714.78;6391325;22;20337;-79
2021/11/25 09:10:19;;;;;;;1.73;1.73;;;;;;;2.61;91.25;99716.50;6394856;22;20037;-80
2021/11/25 09:12:46;;;;;;;1.08;1.08;;;;;;;2.60;91.18;99715.66;6366757;22;20026;-79
2021/11/25 09:15:12;;;;;;;1.23;1.23;;;;;;;2.62;90.16;99711.28;6368696;22;20361;-79
2021/11/25 09:17:38;;;;;;;1.50;1.50;;;;;;;2.61;90.64;99719.91;6395295;22;20379;-76
2021/11/25 09:20:06;;;;;;;1.25;1.25;;;;;;;2.65;90.33;99707.78;6368407;22;20021;-77
2021/11/25 09:22:32;;;;;;;0.88;0.88;;;;;;;2.67;90.27;99708.59;6336345;22;20045;-78
2021/11/25 09:24:58;;;;;;;1.52;1.52;;;;;;;2.62;90.09;99715.59;6335924;22;20615;-76
2021/11/25 09:27:24;;;;;;;1.00;1.00;;;;;;;2.65;90.54;99709.53;6364489;22;20017;-78
2021/11/25 09:29:50;;;;;;;1.63;1.55;;;;;;;2.69;90.85;99717.13;6369373;22;20022;-80
2021/11/25 09:32:16;;;;;;;0.73;0.73;;;;;;;2.69;90.19;99711.97;6365067;22;20112;-77
2021/11/25 09:34:42;;;;;;;3.20;3.00;;;;;;;2.73;90.16;99708.44;6363238;22;20105;-78
2021/11/25 09:37:09;;;;;;;0.68;0.68;;;;;;;2.77;89.72;99709.22;6362819;22;20015;-79
2021/11/25 09:39:36;;;;;;;2.30;1.83;;;;;;;2.75;90.41;99709.25;6336279;22;20049;-74
2021/11/25 09:42:02;;;;;;;3.42;3.22;;;;;;;2.73;90.32;99702.44;6363135;22;20040;-75
2021/11/25 09:44:28;;;;;;;1.40;1.38;;;;;;;2.75;90.18;99709.25;6309808;22;20017;-74
2021/11/25 09:46:55;;;;;;;5.45;1.83;;;;;;;2.74;91.18;99707.56;6335777;22;20024;-75
2021/11/25 09:49:22;;;;;;;1.33;1.25;;;;;;;2.78;90.51;99716.88;6363664;22;20060;-74
2021/11/25 09:51:49;;;;;;;1.65;1.63;;;;;;;2.71;91.50;99715.38;6361683;22;20018;-73
2021/11/25 09:54:16;;;;;;;2.03;2.03;;;;;;;2.74;91.42;99707.56;6361748;22;20142;-73
2021/11/25 09:56:43;;;;;;;1.27;1.23;;;;;;;2.75;91.90;99711.81;6363539;22;20014;-71
2021/11/25 09:59:09;;;;;;;1.10;1.10;;;;;;;2.69;91.78;99716.28;6363884;22;20045;-72
2021/11/25 10:01:35;;;;;;;0.90;0.90;;;;;;;2.71;91.29;99699.91;6335276;22;20498;-75
2021/11/25 10:04:01;;;;;;;5.00;2.85;;;;;;;2.80;90.89;99704.84;6363192;22;20029;-74
2021/11/25 10:06:36;;;;;;;1.35;1.35;;;;;;;2.90;90.88;99715.75;6363652;22;20117;-75
2021/11/25 10:09:04;;;;;;;1.35;1.35;;;;;;;2.80;91.49;99704.84;6362717;22;20440;-74
2021/11/25 10:11:37;;;;;;;2.72;2.47;;;;;;;2.73;91.40;99710.16;6364103;22;20021;-76
2021/11/25 10:14:08;;;;;;;1.30;1.30;;;;;;;2.65;92.01;99704.38;6362441;22;20356;-75
2021/11/25 10:16:37;;;;;;;1.40;1.40;;;;;;;2.64;91.95;99703.53;6363128;22;20014;-75
2021/11/25 10:19:17;;;;;;;1.38;1.38;;;;;;;2.66;91.78;99706.06;6365606;22;20099;-75
2021/11/25 10:21:52;;;;;;;2.20;2.20;;;;;;;2.65;91.91;99704.38;6363465;22;20022;-75
2021/11/25 10:24:32;;;;;;;2.22;2.13;;;;;;;2.66;92.49;99696.59;6364259;22;20104;-74
2021/11/25 10:27:22;;;;;;;2.83;2.63;;;;;;;2.66;92.42;99683.72;6363657;22;20071;-75
2021/11/25 10:29:50;;;;;;;0.75;0.75;;;;;;;2.61;92.25;99688.16;6360513;22;20045;-81
2021/11/25 10:32:17;;;;;;;6.35;3.72;;;;;;;2.71;91.76;99697.34;6359729;22;20025;-74
2021/11/25 10:34:55;;;;;;;1.88;1.77;;;;;;;2.76;92.01;99690.31;6361001;22;20022;-74
2021/11/25 10:40:27;;;;;;;1.20;1.20;;;;;;;2.82;91.02;99682.44;6325966;22;20049;-74
2021/11/25 10:42:54;;;;;;;2.58;2.42;;;;;;;2.80;91.38;99691.09;6333679;22;20014;-74
2021/11/25 10:45:20;;;;;;;1.27;1.27;;;;;;;2.75;91.62;99682.66;6362065;22;20100;-75
2021/11/25 10:48:01;;;;;;;2.33;2.22;;;;;;;2.71;92.20;99678.44;6335368;22;20043;-75
2021/11/25 10:50:28;;;;;;;1.65;1.58;;;;;;;2.68;91.83;99679.38;6335798;22;20018;-73
2021/11/25 10:53:05;;;;;;;2.60;1.48;;;;;;;2.70;92.33;99682.75;6363282;22;20037;-74
2021/11/25 10:55:31;;;;;;;1.10;1.10;;;;;;;2.69;92.18;99686.22;6362964;22;20044;-75
2021/11/25 10:58:01;;;;;;;3.42;2.65;;;;;;;2.70;92.11;99687.06;6363658;22;20018;-73
2021/11/25 11:00:36;;;;;;;2.05;1.20;;;;;;;2.69;92.20;99683.63;6310025;22;20424;-74
2021/11/25 11:03:10;;;;;;;1.00;1.00;;;;;;;2.62;92.09;99670.06;6361766;22;20517;-74
2021/11/25 11:05:58;;;;;;;1.98;1.88;;;;;;;2.64;92.78;99680.34;6361429;22;20017;-75
2021/11/25 11:08:25;;;;;;;3.92;3.63;;;;;;;2.65;92.10;99678.63;6362937;22;20014;-74
2021/11/25 11:10:56;;;;;;;1.42;1.42;;;;;;;2.66;92.65;99675.97;6334908;22;20435;-75
2021/11/25 11:16:42;;;;;;;2.58;2.47;;;;;;;2.65;92.20;99673.47;6363068;22;20101;-73
2021/11/25 11:18:56;;;;;;;1.65;1.55;;;;;;;2.66;92.01;99678.56;6353207;22;20083;-75
2021/11/25 11:21:42;;;;;;;3.28;3.05;;;;;;;2.68;91.64;99674.22;6364189;22;20021;-77
2021/11/25 11:24:38;;;;;;;1.80;1.70;;;;;;;2.68;92.11;99684.53;6360346;22;20036;-75
2021/11/25 11:27:05;;;;;;;0.77;0.77;;;;;;;2.69;92.13;99675.06;6362625;22;20021;-75
2021/11/25 11:29:42;;;;;;;3.58;1.80;;;;;;;2.70;92.07;99672.44;6397771;22;20012;-77
2021/11/25 11:32:09;;;;;;;1.55;1.55;;;;;;;2.70;91.75;99667.28;6366071;22;20082;-73
2021/11/25 11:34:36;;;;;;;1.10;1.10;;;;;;;2.80;91.32;99673.06;6365731;22;20022;-75
2021/11/25 11:37:02;;;;;;;1.75;1.65;;;;;;;2.80;91.50;99673.06;6340169;22;20073;-74
2021/11/25 11:39:29;;;;;;;1.83;1.80;;;;;;;2.75;91.30;99670.59;6394810;22;20017;-74
2021/11/25 11:41:57;;;;;;;1.60;1.60;;;;;;;2.76;90.87;99674.84;6367021;22;20014;-74
2021/11/25 11:44:24;;;;;;;1.95;1.85;;;;;;;2.75;91.79;99667.19;6394604;22;20013;-74
2021/11/25 11:47:16;;;;;;;1.48;1.38;;;;;;;2.72;91.88;99675.81;6396833;22;20014;-76
2021/11/25 11:49:44;;;;;;;0.75;0.75;;;;;;;2.70;91.68;99672.44;6358623;22;20017;-76
2021/11/25 11:52:36;;;;;;;1.17;1.17;;;;;;;2.71;91.44;99673.31;6368417;22;20354;-74
2021/11/25 11:55:04;;;;;;;1.23;1.23;;;;;;;2.75;91.34;99680.88;6368351;22;20025;-74